Time;durP1;ratioP1;P1;durP2;ratioP2;P2;SDS_P1;SDS_P2;PMS_P1;PMS_P2;Temp;Humidity;BMP_temperature;BMP_pressure;BME280_temperature;BME280_humidity;BME280_pressure;Samples;Min_cycle;Max_cycle;Signal;HPM_P1;HPM_P2
2021/05/24 00:00:48;;;;;;;5.60;1.60;;;9.40;99.90;;;;;;5035399;28;20160;-80
2021/05/24 00:03:14;;;;;;;5.55;1.92;;;9.40;99.90;;;;;;5035299;28;20057;-80
2021/05/24 00:05:40;;;;;;;3.67;1.33;;;9.40;99.90;;;;;;5053111;28;20033;-80
2021/05/24 00:08:07;;;;;;;3.58;1.35;;;9.30;99.90;;;;;;5035309;28;20075;-81
2021/05/24 00:10:35;;;;;;;4.47;1.45;;;9.40;99.90;;;;;;5053077;28;20024;-80
2021/05/24 00:13:04;;;;;;;7.55;1.58;;;9.60;99.90;;;;;;5035193;28;20484;-80
2021/05/24 00:15:36;;;;;;;3.00;1.33;;;9.30;99.90;;;;;;5035166;28;20033;-80
2021/05/24 00:18:02;;;;;;;5.07;1.17;;;9.20;99.90;;;;;;5035239;28;20017;-81
2021/05/24 00:20:32;;;;;;;5.90;1.17;;;9.10;99.90;;;;;;5035163;28;20021;-81
2021/05/24 00:22:58;;;;;;;3.25;1.20;;;9.20;99.90;;;;;;5035160;28;20079;-81
2021/05/24 00:25:24;;;;;;;4.35;1.40;;;9.40;99.90;;;;;;5035091;28;20079;-81
2021/05/24 00:27:51;;;;;;;4.57;1.20;;;9.60;99.90;;;;;;5035100;28;20404;-81
2021/05/24 00:30:17;;;;;;;5.13;1.42;;;9.60;99.90;;;;;;5035020;28;20036;-81
2021/05/24 00:32:43;;;;;;;2.10;1.05;;;9.50;99.90;;;;;;5035043;28;20086;-81
2021/05/24 00:35:10;;;;;;;5.05;1.23;;;9.60;99.90;;;;;;5034971;28;20025;-81
2021/05/24 00:37:36;;;;;;;5.90;1.23;;;9.20;99.90;;;;;;5052817;28;20536;-81
2021/05/24 00:40:04;;;;;;;3.25;1.20;;;8.90;99.90;;;;;;5034931;28;20080;-81
2021/05/24 00:42:30;;;;;;;2.53;1.08;;;9.20;99.90;;;;;;5034849;28;20112;-81
2021/05/24 00:44:55;;;;;;;2.42;1.15;;;9.50;99.90;;;;;;5055015;28;20060;-81
2021/05/24 00:47:21;;;;;;;2.55;1.15;;;9.60;99.90;;;;;;5038689;28;20029;-81
2021/05/24 00:49:47;;;;;;;3.05;1.30;;;9.60;99.90;;;;;;5038771;28;20086;-81
2021/05/24 00:52:14;;;;;;;6.90;1.30;;;9.70;99.90;;;;;;5056466;28;20049;-81
2021/05/24 00:54:40;;;;;;;2.45;1.02;;;9.40;99.90;;;;;;5056480;28;20037;-81
2021/05/24 00:57:07;;;;;;;1.77;1.00;;;9.40;99.90;;;;;;5056492;28;20021;-81
2021/05/24 00:59:33;;;;;;;3.35;1.25;;;9.70;99.90;;;;;;5038539;28;20025;-81
2021/05/24 01:01:59;;;;;;;2.72;1.20;;;9.60;99.90;;;;;;5038528;28;20108;-81
2021/05/24 01:04:25;;;;;;;2.88;1.33;;;9.50;99.90;;;;;;5056353;28;20057;-81
2021/05/24 01:06:53;;;;;;;3.78;1.30;;;9.60;99.90;;;;;;5038423;28;20048;-81
2021/05/24 01:09:19;;;;;;;2.05;1.00;;;9.50;99.90;;;;;;5038378;28;20021;-81
2021/05/24 01:11:49;;;;;;;4.57;1.15;;;9.40;99.90;;;;;;5056219;28;20091;-81
2021/05/24 01:14:15;;;;;;;2.20;1.02;;;9.40;99.90;;;;;;5038232;28;20032;-81
2021/05/24 01:16:44;;;;;;;3.40;1.10;;;9.50;99.90;;;;;;5038282;28;20028;-81
2021/05/24 01:19:10;;;;;;;1.95;1.10;;;9.60;99.90;;;;;;5038266;28;20025;-81
2021/05/24 01:21:36;;;;;;;7.80;1.20;;;9.60;99.90;;;;;;5038240;28;20067;-81
2021/05/24 01:24:02;;;;;;;5.78;1.15;;;9.40;99.90;;;;;;5038096;28;20412;-81
2021/05/24 01:26:27;;;;;;;3.15;1.13;;;9.10;99.90;;;;;;5038042;28;20021;-81
2021/05/24 01:28:53;;;;;;;2.63;1.10;;;9.30;99.90;;;;;;5038315;28;20033;-80
2021/05/24 01:31:19;;;;;;;2.75;1.25;;;9.10;99.90;;;;;;5055846;28;20491;-80
2021/05/24 01:33:45;;;;;;;4.75;1.27;;;9.20;99.90;;;;;;5037907;28;20021;-81
2021/05/24 01:36:12;;;;;;;2.28;1.10;;;8.90;99.90;;;;;;5055728;28;20075;-81
2021/05/24 01:38:39;;;;;;;3.55;1.10;;;8.90;99.90;;;;;;5037863;28;20120;-80
2021/05/24 01:41:07;;;;;;;2.40;1.00;;;9.30;99.90;;;;;;5037807;28;20125;-80
2021/05/24 01:43:33;;;;;;;4.60;1.30;;;9.40;99.90;;;;;;5056192;28;20024;-81
2021/05/24 01:45:58;;;;;;;4.70;1.20;;;9.30;99.90;;;;;;5055808;28;20029;-81
2021/05/24 01:48:24;;;;;;;4.15;1.27;;;9.30;99.90;;;;;;5055575;28;20107;-80
2021/05/24 01:50:51;;;;;;;2.50;0.98;;;9.30;99.90;;;;;;5055466;28;20125;-80
2021/05/24 01:53:17;;;;;;;5.75;1.23;;;;;;;;;;5055452;28;20025;-81
2021/05/24 01:55:44;;;;;;;1.73;0.80;;;8.70;99.90;;;;;;5036352;28;20032;-80
2021/05/24 01:58:09;;;;;;;1.55;0.98;;;8.50;99.90;;;;;;5055360;28;20026;-80
2021/05/24 02:00:35;;;;;;;3.67;1.30;;;8.80;99.90;;;;;;5055307;28;20025;-80
2021/05/24 02:03:02;;;;;;;4.20;1.40;;;8.80;99.90;;;;;;5055302;28;20560;-80
2021/05/24 02:05:28;;;;;;;3.80;1.15;;;8.80;99.90;;;;;;5037272;28;20032;-80
2021/05/24 02:07:56;;;;;;;3.92;1.23;;;8.70;99.90;;;;;;5055221;28;20021;-80
2021/05/24 02:10:26;;;;;;;2.85;1.20;;;8.50;99.90;;;;;;5038069;28;20159;-80
2021/05/24 02:12:52;;;;;;;1.88;0.95;;;8.80;99.90;;;;;;5037209;28;20025;-80
2021/05/24 02:15:23;;;;;;;4.70;1.08;;;8.90;99.90;;;;;;5054980;28;20026;-80
2021/05/24 02:17:49;;;;;;;3.95;1.25;;;8.90;99.90;;;;;;5037098;28;20114;-80
2021/05/24 02:20:25;;;;;;;3.50;1.30;;;8.50;99.90;;;;;;5054933;28;20052;-80
2021/05/24 02:22:52;;;;;;;6.70;1.25;;;8.40;99.90;;;;;;5037002;28;20021;-80
2021/05/24 02:25:18;;;;;;;7.03;1.52;;;8.90;99.90;;;;;;5036817;28;20036;-80
2021/05/24 02:27:44;;;;;;;3.33;1.30;;;8.90;99.90;;;;;;5054810;28;20025;-80
2021/05/24 02:30:11;;;;;;;4.07;0.98;;;8.80;99.90;;;;;;5055029;28;20365;-80
2021/05/24 02:32:38;;;;;;;1.83;1.08;;;8.80;99.90;;;;;;5036886;28;20515;-80
2021/05/24 02:35:05;;;;;;;7.18;1.13;;;8.80;99.90;;;;;;5036698;28;20116;-80
2021/05/24 02:37:31;;;;;;;4.50;1.17;;;8.60;99.90;;;;;;5054517;28;20021;-80
2021/05/24 02:39:57;;;;;;;1.90;1.20;;;8.80;99.90;;;;;;5054591;28;20025;-80
2021/05/24 02:42:22;;;;;;;2.05;1.00;;;8.90;99.90;;;;;;5036653;28;20060;-80
2021/05/24 02:44:48;;;;;;;3.80;1.30;;;9.00;99.90;;;;;;5054747;28;20036;-80
2021/05/24 02:47:14;;;;;;;2.10;1.02;;;9.00;99.90;;;;;;5036584;28;20029;-80
2021/05/24 02:49:39;;;;;;;4.75;1.23;;;9.10;99.90;;;;;;5054438;28;20029;-80
2021/05/24 02:52:05;;;;;;;4.57;1.40;;;9.10;99.90;;;;;;5036341;28;20053;-80
2021/05/24 02:54:31;;;;;;;3.97;1.48;;;9.20;99.90;;;;;;5054245;28;20455;-80
2021/05/24 02:56:58;;;;;;;4.82;1.30;;;9.10;99.90;;;;;;5036439;28;20028;-80
2021/05/24 02:59:24;;;;;;;4.05;1.10;;;9.10;99.90;;;;;;5036305;28;20033;-80
2021/05/24 03:01:50;;;;;;;3.33;0.95;;;8.80;99.90;;;;;;5036315;28;20083;-80
2021/05/24 03:04:17;;;;;;;4.13;1.30;;;8.90;99.90;;;;;;5036237;28;20029;-80
2021/05/24 03:06:43;;;;;;;2.42;1.20;;;8.80;99.90;;;;;;5035913;28;20032;-80
2021/05/24 03:09:09;;;;;;;3.42;1.33;;;8.80;99.90;;;;;;5054058;28;20369;-80
2021/05/24 03:11:35;;;;;;;2.75;1.25;;;8.60;99.90;;;;;;5053978;28;20025;-80
2021/05/24 03:14:00;;;;;;;2.70;1.35;;;8.50;99.90;;;;;;5053850;28;20071;-80
2021/05/24 03:16:26;;;;;;;4.32;1.48;;;8.80;99.90;;;;;;5054164;28;20032;-80
2021/05/24 03:18:51;;;;;;;5.95;1.30;;;8.80;99.90;;;;;;5035943;28;20104;-80
2021/05/24 03:21:18;;;;;;;3.28;1.27;;;8.90;99.90;;;;;;5054122;28;20021;-80
2021/05/24 03:23:44;;;;;;;3.35;1.20;;;8.80;99.90;;;;;;5053781;28;20397;-80
2021/05/24 03:26:09;;;;;;;5.47;1.10;;;9.00;99.90;;;;;;5053751;28;20104;-80
2021/05/24 03:28:35;;;;;;;4.30;1.00;;;8.50;99.90;;;;;;5035818;28;20027;-80
2021/05/24 03:31:01;;;;;;;2.63;1.20;;;8.40;99.90;;;;;;5053680;28;20021;-80
2021/05/24 03:33:27;;;;;;;3.22;1.30;;;8.40;99.90;;;;;;5035734;28;20029;-80
2021/05/24 03:35:52;;;;;;;2.20;1.38;;;8.20;99.90;;;;;;5053794;28;20033;-80
2021/05/24 03:38:18;;;;;;;2.47;1.20;;;8.30;99.90;;;;;;5035620;28;20032;-80
2021/05/24 03:40:44;;;;;;;2.20;0.95;;;8.50;99.90;;;;;;5053516;28;20021;-80
2021/05/24 03:43:10;;;;;;;4.32;1.17;;;8.60;99.90;;;;;;5053508;28;20480;-80
2021/05/24 03:45:38;;;;;;;2.53;1.20;;;8.30;99.90;;;;;;5053335;28;20020;-80
2021/05/24 03:48:05;;;;;;;2.10;0.93;;;8.20;99.90;;;;;;5053343;28;20043;-80
2021/05/24 03:50:31;;;;;;;1.92;0.90;;;8.40;99.90;;;;;;5035245;28;20119;-80
2021/05/24 03:52:56;;;;;;;4.85;1.40;;;8.40;99.90;;;;;;5035522;28;20540;-80
2021/05/24 03:55:22;;;;;;;2.75;1.02;;;8.40;99.90;;;;;;5053511;28;20094;-80
2021/05/24 03:57:51;;;;;;;1.20;1.00;;;8.50;99.90;;;;;;5035449;28;20024;-80
2021/05/24 04:00:17;;;;;;;2.33;1.15;;;8.60;99.90;;;;;;5035352;28;20052;-80
2021/05/24 04:02:43;;;;;;;2.90;1.30;;;8.90;99.90;;;;;;5035395;28;20545;-80
2021/05/24 04:07:46;;;;;;;4.93;1.17;;;8.60;99.90;;;;;;5053264;28;20415;-80
2021/05/24 04:10:13;;;;;;;1.52;1.10;;;8.50;99.90;;;;;;5053732;28;20028;-80
2021/05/24 04:12:38;;;;;;;2.65;1.08;;;8.60;99.90;;;;;;5053129;28;20036;-80
2021/05/24 04:15:05;;;;;;;2.40;1.20;;;8.70;99.90;;;;;;5053069;28;20441;-81
2021/05/24 04:17:35;;;;;;;2.35;1.10;;;8.90;99.90;;;;;;5052997;28;20393;-81
2021/05/24 04:20:01;;;;;;;2.08;1.30;;;8.90;99.90;;;;;;5037363;28;20075;-80
2021/05/24 04:22:27;;;;;;;3.65;1.25;;;8.80;99.90;;;;;;5039278;28;20107;-80
2021/05/24 04:24:52;;;;;;;2.88;1.17;;;8.90;99.90;;;;;;5057143;28;20100;-80
2021/05/24 04:27:18;;;;;;;4.00;1.58;;;9.10;99.90;;;;;;5039231;28;20403;-81
2021/05/24 04:29:43;;;;;;;1.98;1.05;;;8.90;99.90;;;;;;5039178;28;20378;-80
2021/05/24 04:32:09;;;;;;;5.32;1.45;;;8.70;99.90;;;;;;5039187;28;20021;-80
2021/05/24 04:34:35;;;;;;;2.85;1.20;;;8.50;99.90;;;;;;5056909;28;20101;-81
2021/05/24 04:37:00;;;;;;;1.80;1.13;;;8.80;99.90;;;;;;5056906;28;20033;-80
2021/05/24 04:39:26;;;;;;;2.88;1.35;;;8.90;99.90;;;;;;5057176;28;20021;-81
2021/05/24 04:41:52;;;;;;;4.43;1.10;;;9.00;99.90;;;;;;5038945;28;20104;-81
2021/05/24 04:44:19;;;;;;;8.27;2.40;;;9.20;99.90;;;;;;5038862;28;20025;-81
2021/05/24 04:46:46;;;;;;;9.00;2.85;;;9.40;99.90;;;;;;5056631;28;20017;-81
2021/05/24 04:49:12;;;;;;;5.00;2.20;;;9.10;99.90;;;;;;5038719;28;20519;-80
2021/05/24 04:51:37;;;;;;;3.83;1.55;;;9.20;99.90;;;;;;5038534;28;20044;-80
2021/05/24 04:54:05;;;;;;;5.43;1.45;;;9.30;99.90;;;;;;5056719;28;20102;-82
2021/05/24 04:56:31;;;;;;;2.53;1.10;;;9.30;99.90;;;;;;5056473;28;20080;-80
2021/05/24 04:58:56;;;;;;;2.65;1.10;;;9.20;99.90;;;;;;5038567;28;20017;-80
2021/05/24 05:01:22;;;;;;;6.10;1.58;;;9.30;99.90;;;;;;5038581;28;20025;-80
2021/05/24 05:03:48;;;;;;;7.50;1.50;;;9.30;99.90;;;;;;5056415;28;20025;-80
2021/05/24 05:06:14;;;;;;;4.03;1.00;;;9.40;99.90;;;;;;5056608;28;20435;-80
2021/05/24 05:08:39;;;;;;;2.45;1.13;;;9.30;99.90;;;;;;5038403;28;20539;-81
2021/05/24 05:11:05;;;;;;;2.28;1.00;;;9.40;99.90;;;;;;5056241;28;20033;-81
2021/05/24 05:13:31;;;;;;;3.50;1.42;;;9.60;99.90;;;;;;5038301;28;20035;-81
2021/05/24 05:15:56;;;;;;;2.35;1.10;;;9.60;99.90;;;;;;5038273;28;20070;-81
2021/05/24 05:18:22;;;;;;;5.60;1.20;;;9.70;99.90;;;;;;5038251;28;20021;-81
2021/05/24 05:20:48;;;;;;;3.03;1.23;;;9.90;99.90;;;;;;5056086;28;20477;-81
2021/05/24 05:23:13;;;;;;;5.53;1.33;;;9.80;99.90;;;;;;5038116;28;20056;-81
2021/05/24 05:25:39;;;;;;;4.50;1.23;;;9.90;99.90;;;;;;5056014;28;20025;-81
2021/05/24 05:28:06;;;;;;;8.93;1.20;;;9.80;99.90;;;;;;5056190;28;20028;-80
2021/05/24 05:30:32;;;;;;;4.65;1.20;;;9.70;99.90;;;;;;5055725;28;20103;-80
2021/05/24 05:32:58;;;;;;;3.05;1.20;;;9.70;99.90;;;;;;5038005;28;20095;-80
2021/05/24 05:35:23;;;;;;;4.90;1.20;;;9.80;99.90;;;;;;5037880;28;20033;-81
2021/05/24 05:37:51;;;;;;;2.67;1.10;;;9.90;99.90;;;;;;5037795;28;20021;-80
2021/05/24 05:40:18;;;;;;;4.63;1.48;;;9.80;99.90;;;;;;5037805;28;20472;-81
2021/05/24 05:42:48;;;;;;;6.28;1.20;;;9.70;99.90;;;;;;5038041;28;20116;-81
2021/05/24 05:45:15;;;;;;;3.45;1.10;;;9.60;99.90;;;;;;5055582;28;20025;-80
2021/05/24 05:47:41;;;;;;;2.60;1.17;;;9.60;99.90;;;;;;5037369;28;20082;-80
2021/05/24 05:50:08;;;;;;;2.50;0.98;;;9.70;99.90;;;;;;5037193;28;20120;-81
2021/05/24 05:52:35;;;;;;;4.32;1.13;;;9.80;99.90;;;;;;5037446;28;20040;-81
2021/05/24 05:55:05;;;;;;;2.70;1.33;;;9.90;99.90;;;;;;5055034;28;20043;-81
2021/05/24 05:57:31;;;;;;;2.63;1.13;;;10.00;99.90;;;;;;5037367;28;20421;-81
2021/05/24 05:59:56;;;;;;;5.15;1.10;;;9.80;99.90;;;;;;5055361;28;20031;-81
2021/05/24 06:02:22;;;;;;;4.43;1.25;;;9.90;99.90;;;;;;5055284;28;20473;-81
2021/05/24 06:04:48;;;;;;;3.35;1.25;;;9.90;99.90;;;;;;5037358;28;20075;-80
2021/05/24 06:07:14;;;;;;;7.07;1.33;;;10.00;99.90;;;;;;5055448;28;20020;-81
2021/05/24 06:09:40;;;;;;;1.83;1.10;;;10.10;99.90;;;;;;5037283;28;20052;-80
2021/05/24 06:12:07;;;;;;;3.38;1.20;;;9.90;99.90;;;;;;5055091;28;20029;-80
2021/05/24 06:14:33;;;;;;;5.57;1.25;;;10.10;99.90;;;;;;5037107;28;20033;-80
2021/05/24 06:16:59;;;;;;;5.88;1.58;;;10.10;99.90;;;;;;5055230;28;20017;-81
2021/05/24 06:19:24;;;;;;;2.55;1.27;;;10.30;99.90;;;;;;5037131;28;20522;-81
2021/05/24 06:21:50;;;;;;;2.78;1.40;;;10.50;99.90;;;;;;5037081;28;20029;-80
2021/05/24 06:24:16;;;;;;;5.05;1.20;;;10.60;99.90;;;;;;5037011;28;20021;-80
2021/05/24 06:26:41;;;;;;;3.50;1.10;;;10.60;99.90;;;;;;5036981;28;20134;-81
2021/05/24 06:29:07;;;;;;;4.90;1.02;;;10.70;99.90;;;;;;5036960;28;20032;-80
2021/05/24 06:31:34;;;;;;;2.50;1.13;;;10.80;99.90;;;;;;5054716;28;20392;-81
2021/05/24 06:33:59;;;;;;;4.40;1.50;;;10.80;99.90;;;;;;5054907;28;20101;-80
2021/05/24 06:36:25;;;;;;;5.13;1.10;;;10.60;99.90;;;;;;5036835;28;20447;-81
2021/05/24 06:38:51;;;;;;;2.85;1.63;;;10.60;99.90;;;;;;5054883;28;20064;-80
2021/05/24 06:41:17;;;;;;;4.15;2.00;;;10.70;99.90;;;;;;5036537;28;20017;-81
2021/05/24 06:43:43;;;;;;;2.72;1.38;;;11.00;99.90;;;;;;5036127;28;20021;-80
2021/05/24 06:46:09;;;;;;;2.08;1.15;;;11.20;99.90;;;;;;5054378;28;20100;-81
2021/05/24 06:48:35;;;;;;;2.45;1.23;;;11.30;99.90;;;;;;5036596;28;20056;-80
2021/05/24 06:51:00;;;;;;;3.50;1.30;;;11.30;99.90;;;;;;5036365;28;20061;-81
2021/05/24 06:53:27;;;;;;;3.50;1.17;;;11.40;99.90;;;;;;5036426;28;20548;-81
2021/05/24 06:55:53;;;;;;;2.10;1.00;;;11.30;99.90;;;;;;5036307;28;20120;-81
2021/05/24 06:58:18;;;;;;;2.47;1.30;;;11.30;99.90;;;;;;5054264;28;20136;-81
2021/05/24 07:00:44;;;;;;;2.75;1.45;;;11.30;99.90;;;;;;5036263;28;20017;-81
2021/05/24 07:03:10;;;;;;;6.03;1.15;;;11.30;99.90;;;;;;5054443;28;20025;-81
2021/05/24 07:05:35;;;;;;;1.63;1.02;;;11.50;99.90;;;;;;5036239;28;20028;-81
2021/05/24 07:08:01;;;;;;;5.30;1.35;;;11.80;99.90;;;;;;5054033;28;20025;-81
2021/05/24 07:10:27;;;;;;;2.72;1.00;;;12.10;99.90;;;;;;5053956;28;20025;-81
2021/05/24 07:12:52;;;;;;;3.85;1.10;;;12.10;99.90;;;;;;5036090;28;20051;-81
2021/05/24 07:15:18;;;;;;;3.15;0.93;;;12.20;99.90;;;;;;5035888;28;20025;-81
2021/05/24 07:17:45;;;;;;;4.45;1.10;;;12.10;99.90;;;;;;5035955;28;20525;-81
2021/05/24 07:20:12;;;;;;;1.50;0.93;;;12.10;99.90;;;;;;5035984;28;20043;-81
2021/05/24 07:22:37;;;;;;;10.00;1.38;;;12.10;99.90;;;;;;5035883;28;20506;-81
2021/05/24 07:25:05;;;;;;;2.35;1.23;;;12.30;99.90;;;;;;5035914;28;20028;-81
2021/05/24 07:27:31;;;;;;;3.97;1.05;;;12.40;99.90;;;;;;5036038;28;20087;-80
2021/05/24 07:29:57;;;;;;;3.88;1.13;;;12.60;99.90;;;;;;5035770;28;20029;-82
2021/05/24 07:32:22;;;;;;;2.80;1.30;;;12.50;99.90;;;;;;5035752;28;20030;-82
2021/05/24 07:34:48;;;;;;;3.85;0.95;;;12.70;99.90;;;;;;5035599;28;20025;-82
2021/05/24 07:37:14;;;;;;;3.20;1.20;;;12.70;99.90;;;;;;5053516;28;20096;-82
2021/05/24 07:39:40;;;;;;;2.47;1.38;;;12.90;99.90;;;;;;5035536;28;20510;-82
2021/05/24 07:42:06;;;;;;;1.60;0.98;;;13.00;99.90;;;;;;5035535;28;20082;-82
2021/05/24 07:44:33;;;;;;;3.05;0.93;;;13.10;99.90;;;;;;5053438;28;20542;-83
2021/05/24 07:47:00;;;;;;;6.82;1.40;;;13.10;99.90;;;;;;5035511;28;20056;-83
2021/05/24 07:49:26;;;;;;;1.95;1.33;;;13.10;99.90;;;;;;5035473;28;20028;-83
2021/05/24 07:51:52;;;;;;;5.07;1.20;;;13.20;99.90;;;;;;5053163;28;20509;-83
2021/05/24 07:54:19;;;;;;;3.58;1.20;;;13.20;99.90;;;;;;5052319;28;20536;-83
2021/05/24 07:56:45;;;;;;;4.30;1.23;;;13.20;99.90;;;;;;5035405;28;20028;-83
2021/05/24 07:59:12;;;;;;;5.10;1.05;;;13.30;99.90;;;;;;5035309;28;20391;-83
2021/05/24 08:01:37;;;;;;;3.63;1.00;;;13.40;99.90;;;;;;5035337;28;20029;-83
2021/05/24 08:04:04;;;;;;;2.25;1.00;;;13.50;99.90;;;;;;5053184;28;20531;-83
2021/05/24 08:06:29;;;;;;;6.97;1.20;;;13.80;99.90;;;;;;5035278;28;20074;-83
2021/05/24 08:08:55;;;;;;;2.90;0.90;;;13.90;99.90;;;;;;5035300;28;20021;-83
2021/05/24 08:11:21;;;;;;;2.35;0.75;;;14.20;99.90;;;;;;5053153;28;20028;-83
2021/05/24 08:13:47;;;;;;;2.03;1.00;;;14.40;99.90;;;;;;5053031;28;20029;-83
2021/05/24 08:16:14;;;;;;;1.00;0.70;;;14.40;99.90;;;;;;5035107;28;20025;-83
2021/05/24 08:18:41;;;;;;;3.75;0.77;;;14.40;99.90;;;;;;5035242;28;20025;-83
2021/05/24 08:21:08;;;;;;;3.50;1.05;;;14.40;99.90;;;;;;5035129;28;20029;-83
2021/05/24 08:23:33;;;;;;;2.00;0.70;;;14.40;99.90;;;;;;5035113;28;20025;-83
2021/05/24 08:26:01;;;;;;;1.05;0.57;;;14.50;99.90;;;;;;5035156;28;20067;-81
2021/05/24 08:28:27;;;;;;;7.05;0.90;;;14.60;99.90;;;;;;5052966;28;20499;-83
2021/05/24 08:30:53;;;;;;;1.02;0.60;;;14.70;99.90;;;;;;5035055;28;20112;-83
2021/05/24 08:33:21;;;;;;;1.83;0.80;;;14.60;99.90;;;;;;5035087;28;20116;-82
2021/05/24 08:35:47;;;;;;;2.40;0.70;;;14.60;99.90;;;;;;5052815;28;20427;-81
2021/05/24 08:38:12;;;;;;;4.53;0.63;;;14.70;99.90;;;;;;5034936;28;20070;-81
2021/05/24 08:40:38;;;;;;;4.43;0.75;;;14.60;99.90;;;;;;5052875;28;20067;-82
2021/05/24 08:43:05;;;;;;;2.47;0.85;;;14.80;99.90;;;;;;5034935;28;20028;-81
2021/05/24 08:45:30;;;;;;;3.38;0.70;;;14.90;99.90;;;;;;5034969;28;20549;-80
2021/05/24 08:47:56;;;;;;;2.10;0.70;;;15.00;99.90;;;;;;5034772;28;20025;-81
2021/05/24 08:50:22;;;;;;;1.40;0.63;;;15.10;99.90;;;;;;5052564;28;20045;-82
2021/05/24 08:52:48;;;;;;;1.95;0.70;;;15.30;99.90;;;;;;5035137;28;20028;-82
2021/05/24 08:55:16;;;;;;;2.20;0.68;;;15.50;99.90;;;;;;5052777;28;20037;-82
2021/05/24 08:57:43;;;;;;;3.03;0.73;;;15.50;99.90;;;;;;5034724;28;20477;-80
2021/05/24 09:00:14;;;;;;;3.50;0.82;;;15.70;99.90;;;;;;5034793;28;20025;-83
2021/05/24 09:02:44;;;;;;;3.70;0.60;;;15.90;99.90;;;;;;5052539;28;20021;-83
2021/05/24 09:05:10;;;;;;;4.05;0.68;;;16.00;99.90;;;;;;5053240;28;20017;-83
2021/05/24 09:07:56;;;;;;;2.30;0.80;;;16.00;99.90;;;;;;5056675;28;20028;-82
2021/05/24 09:10:24;;;;;;;1.65;0.60;;;16.10;99.90;;;;;;5038419;28;20365;-82
2021/05/24 09:12:51;;;;;;;1.42;0.60;;;16.10;99.90;;;;;;5038376;28;20096;-82
2021/05/24 09:15:18;;;;;;;2.85;0.60;;;16.40;99.90;;;;;;5038264;28;20029;-82
2021/05/24 09:17:48;;;;;;;1.67;0.68;;;16.40;99.90;;;;;;5039195;28;20468;-82
2021/05/24 09:20:19;;;;;;;1.92;0.70;;;16.40;99.90;;;;;;5056141;28;20021;-83
2021/05/24 09:23:03;;;;;;;2.35;0.85;;;16.60;99.90;;;;;;5038225;28;20384;-81
2021/05/24 09:25:52;;;;;;;1.00;0.43;;;16.60;99.90;;;;;;5038265;28;20025;-82
2021/05/24 09:28:24;;;;;;;1.65;0.60;;;16.80;99.90;;;;;;5055982;28;20059;-83
2021/05/24 09:30:57;;;;;;;1.30;0.60;;;16.80;99.90;;;;;;5038060;28;20033;-82
2021/05/24 09:33:23;;;;;;;0.85;0.45;;;16.70;99.90;;;;;;5038026;28;20572;-82
2021/05/24 09:35:51;;;;;;;1.65;0.50;;;16.70;99.90;;;;;;5037916;28;20032;-83
2021/05/24 09:38:19;;;;;;;9.63;1.02;;;16.80;99.90;;;;;;5037921;28;20031;-80
2021/05/24 09:40:54;;;;;;;0.90;0.52;;;17.00;99.90;;;;;;5055734;28;20039;-82
2021/05/24 09:43:20;;;;;;;1.45;0.60;;;17.20;99.90;;;;;;5037978;28;20021;-82
2021/05/24 09:45:48;;;;;;;0.90;0.40;;;17.30;99.90;;;;;;5038017;28;20029;-81
2021/05/24 09:48:14;;;;;;;1.58;0.70;;;17.30;99.90;;;;;;5055606;28;20025;-80
2021/05/24 09:50:40;;;;;;;3.70;0.60;;;17.40;99.90;;;;;;5055472;28;20523;-81
2021/05/24 09:53:06;;;;;;;2.25;0.40;;;17.40;99.90;;;;;;5037607;28;20078;-81
2021/05/24 09:55:31;;;;;;;0.68;0.40;;;17.50;99.90;;;;;;5037443;28;20060;-81
2021/05/24 09:58:02;;;;;;;1.83;0.52;;;17.50;99.90;;;;;;5037458;28;20024;-81
2021/05/24 10:00:51;;;;;;;1.75;0.50;;;17.50;99.90;;;;;;5055355;28;20025;-82
2021/05/24 10:03:21;;;;;;;3.63;0.65;;;17.50;99.90;;;;;;5037438;28;20120;-81
2021/05/24 10:05:50;;;;;;;1.85;0.50;;;17.40;99.90;;;;;;5055560;28;20104;-83
2021/05/24 10:08:16;;;;;;;1.70;0.70;;;17.40;99.90;;;;;;5037279;28;20511;-82
2021/05/24 10:10:42;;;;;;;3.03;0.73;;;17.40;99.90;;;;;;5037202;28;20021;-82
2021/05/24 10:13:10;;;;;;;1.35;0.60;;;17.30;99.90;;;;;;5037515;28;20040;-81
2021/05/24 10:15:45;;;;;;;1.45;0.70;;;17.30;99.90;;;;;;5037103;28;20029;-82
2021/05/24 10:18:12;;;;;;;1.92;0.50;;;17.40;99.90;;;;;;5054033;28;20112;-81
2021/05/24 10:20:38;;;;;;;4.38;0.50;;;17.40;99.90;;;;;;5037080;28;20021;-81
2021/05/24 10:23:06;;;;;;;2.53;0.70;;;17.30;99.90;;;;;;5037026;28;20021;-81
2021/05/24 10:25:35;;;;;;;3.67;0.88;;;17.40;99.90;;;;;;5037015;28;20421;-82
2021/05/24 10:28:03;;;;;;;1.23;0.50;;;17.50;99.60;;;;;;5036947;28;20112;-82
2021/05/24 10:30:29;;;;;;;3.40;0.63;;;17.40;99.00;;;;;;5020538;28;20519;-83
2021/05/24 10:33:00;;;;;;;2.60;0.98;;;17.50;99.90;;;;;;5037106;28;20025;-82
2021/05/24 10:35:40;;;;;;;2.80;0.60;;;17.60;99.90;;;;;;5036812;28;20055;-82
2021/05/24 10:38:32;;;;;;;0.60;0.40;;;17.70;99.90;;;;;;5055036;28;20569;-81
2021/05/24 10:41:16;;;;;;;4.68;1.70;;;17.70;99.90;;;;;;5054585;28;20151;-81
2021/05/24 10:43:52;;;;;;;2.47;0.77;;;17.70;99.90;;;;;;5036639;28;20029;-81
2021/05/24 10:46:30;;;;;;;4.15;0.60;;;17.70;99.90;;;;;;5036546;28;20025;-81
2021/05/24 10:49:02;;;;;;;1.15;0.60;;;17.40;99.90;;;;;;5036535;28;20029;-81
2021/05/24 10:51:47;;;;;;;1.70;0.77;;;17.40;99.90;;;;;;5054311;28;20041;-80
2021/05/24 10:54:13;;;;;;;4.35;0.68;;;17.50;99.90;;;;;;5054254;28;20028;-82
2021/05/24 10:56:58;;;;;;;1.85;0.70;;;17.50;99.90;;;;;;5036454;28;20107;-81
2021/05/24 10:59:41;;;;;;;1.20;0.63;;;17.50;99.90;;;;;;5036485;28;20017;-81
2021/05/24 11:02:29;;;;;;;2.08;0.77;;;17.50;99.90;;;;;;5054259;28;20021;-81
2021/05/24 11:05:00;;;;;;;3.28;0.90;;;17.40;99.90;;;;;;5026836;28;20037;-81
2021/05/24 11:07:47;;;;;;;1.52;0.70;;;17.50;99.90;;;;;;5054412;28;20024;-81
2021/05/24 11:10:16;;;;;;;2.75;1.25;;;17.60;99.90;;;;;;5054070;28;20021;-81
2021/05/24 11:12:54;;;;;;;2.42;0.63;;;17.70;99.90;;;;;;5036215;28;20116;-82
2021/05/24 11:15:22;;;;;;;3.63;0.95;;;17.90;99.90;;;;;;5053942;28;20025;-81
2021/05/24 11:18:00;;;;;;;3.10;0.60;;;17.90;99.90;;;;;;5036958;28;20507;-81
2021/05/24 11:20:50;;;;;;;2.00;0.93;;;18.50;99.90;;;;;;5053852;28;20032;-82
2021/05/24 11:26:16;;;;;;;2.30;0.68;;;20.00;99.50;;;;;;5053841;28;20519;-83
2021/05/24 11:29:09;;;;;;;2.38;0.75;;;20.70;99.90;;;;;;5035646;28;20040;-83
2021/05/24 11:31:36;;;;;;;2.28;0.75;;;;;;;;;;5029241;28;20040;-83
2021/05/24 11:34:02;;;;;;;1.35;0.57;;;;;;;;;;5035734;28;20366;-83
2021/05/24 11:36:29;;;;;;;1.73;0.50;;;;;;;;;;5035587;28;20029;-83
2021/05/24 11:39:04;;;;;;;0.90;0.40;;;;;;;;;;5035751;28;20043;-83
2021/05/24 11:41:31;;;;;;;2.63;0.60;;;;;;;;;;5036205;28;20021;-83
2021/05/24 11:43:59;;;;;;;0.75;0.40;;;;;;;;;;5053488;28;20116;-83
2021/05/24 11:46:25;;;;;;;2.30;0.50;;;22.00;81.00;;;;;;5053347;28;20067;-81
2021/05/24 11:48:52;;;;;;;2.13;0.63;;;21.80;78.20;;;;;;5035549;28;20112;-83
2021/05/24 11:51:32;;;;;;;2.45;0.55;;;21.50;80.40;;;;;;5035376;28;20075;-83
2021/05/24 11:54:04;;;;;;;1.58;0.60;;;22.00;80.60;;;;;;5053388;28;20016;-83
2021/05/24 11:56:45;;;;;;;2.80;0.52;;;22.00;80.40;;;;;;5035385;28;20123;-83
2021/05/24 11:59:14;;;;;;;2.53;0.68;;;21.40;75.40;;;;;;5035426;28;20025;-83
2021/05/24 12:01:45;;;;;;;3.15;0.50;;;21.00;75.60;;;;;;5053413;28;20473;-84
2021/05/24 12:04:16;;;;;;;3.88;0.70;;;20.30;76.50;;;;;;5035338;28;20488;-83
2021/05/24 12:06:50;;;;;;;2.45;0.50;;;20.10;71.80;;;;;;5053264;28;20025;-85
2021/05/24 12:09:45;;;;;;;1.83;0.70;;;19.60;79.70;;;;;;5035521;28;20021;-84
2021/05/24 12:12:23;;;;;;;0.90;0.52;;;19.20;80.40;;;;;;5035277;28;20511;-82
2021/05/24 12:14:51;;;;;;;2.35;0.63;;;18.70;84.40;;;;;;5035158;28;20025;-82
2021/05/24 12:17:22;;;;;;;3.00;0.65;;;18.50;87.70;;;;;;5035204;28;20079;-83
2021/05/24 12:19:52;;;;;;;1.77;0.50;;;18.30;86.80;;;;;;5053096;28;20021;-82
2021/05/24 12:22:18;;;;;;;1.40;0.60;;;18.20;87.20;;;;;;5053273;28;20091;-83
2021/05/24 12:24:46;;;;;;;1.40;0.50;;;18.00;89.70;;;;;;5035162;28;20021;-83
2021/05/24 12:27:14;;;;;;;3.50;0.52;;;18.00;88.70;;;;;;5053044;28;20074;-83
2021/05/24 12:30:16;;;;;;;2.10;0.57;;;18.10;90.20;;;;;;5052954;28;20099;-82
2021/05/24 12:32:48;;;;;;;3.13;0.50;;;18.10;88.00;;;;;;5034979;28;20037;-82
2021/05/24 12:35:38;;;;;;;2.85;0.60;;;18.10;90.00;;;;;;5052710;28;20476;-82
2021/05/24 12:38:17;;;;;;;5.15;0.57;;;18.10;90.40;;;;;;5043713;28;20040;-82
2021/05/24 12:40:43;;;;;;;2.20;0.60;;;18.10;90.20;;;;;;5036629;28;20021;-83
2021/05/24 12:43:10;;;;;;;1.58;0.60;;;18.10;91.10;;;;;;5056847;28;20051;-83
2021/05/24 12:45:35;;;;;;;2.42;0.95;;;18.70;91.50;;;;;;5056819;28;20392;-83
2021/05/24 12:48:17;;;;;;;1.27;0.50;;;18.90;91.00;;;;;;5056701;28;20025;-83
2021/05/24 12:50:46;;;;;;;2.88;0.80;;;18.70;91.90;;;;;;5038709;28;20140;-83
2021/05/24 12:53:13;;;;;;;1.75;0.70;;;18.90;91.20;;;;;;5038774;28;20029;-82
2021/05/24 12:55:41;;;;;;;1.23;0.50;;;18.90;91.40;;;;;;5056843;28;20025;-83
2021/05/24 12:58:15;;;;;;;2.00;0.77;;;18.80;91.70;;;;;;5038993;28;20057;-83
2021/05/24 13:00:48;;;;;;;2.58;0.80;;;19.20;92.50;;;;;;5038643;28;20116;-81
2021/05/24 13:03:18;;;;;;;3.00;0.90;;;19.60;91.70;;;;;;5056541;28;20017;-83